sensor_id;sensor_type;location;lat;lon;timestamp;temperature;humidity
10692;DHT22;5396;50.950;6.988;2023-02-28T00:00:17;0.60;99.90
10692;DHT22;5396;50.950;6.988;2023-02-28T00:02:43;0.50;99.90
10692;DHT22;5396;50.950;6.988;2023-02-28T00:05:11;0.50;99.90
10692;DHT22;5396;50.950;6.988;2023-02-28T00:07:37;0.40;99.90
10692;DHT22;5396;50.950;6.988;2023-02-28T00:10:05;0.40;99.90
10692;DHT22;5396;50.950;6.988;2023-02-28T00:12:33;0.40;99.90
10692;DHT22;5396;50.950;6.988;2023-02-28T00:14:59;0.40;99.90
10692;DHT22;5396;50.950;6.988;2023-02-28T00:17:25;0.30;99.90
10692;DHT22;5396;50.950;6.988;2023-02-28T00:19:51;0.30;99.90
10692;DHT22;5396;50.950;6.988;2023-02-28T00:22:18;0.30;99.90
10692;DHT22;5396;50.950;6.988;2023-02-28T00:24:45;0.30;99.90
10692;DHT22;5396;50.950;6.988;2023-02-28T00:27:11;0.30;99.90
10692;DHT22;5396;50.950;6.988;2023-02-28T00:29:37;0.30;99.90
10692;DHT22;5396;50.950;6.988;2023-02-28T00:32:03;0.30;99.90
10692;DHT22;5396;50.950;6.988;2023-02-28T00:34:29;0.30;99.90
10692;DHT22;5396;50.950;6.988;2023-02-28T00:36:54;0.30;99.90
10692;DHT22;5396;50.950;6.988;2023-02-28T00:39:20;0.20;99.90
10692;DHT22;5396;50.950;6.988;2023-02-28T00:41:46;0.20;99.90
10692;DHT22;5396;50.950;6.988;2023-02-28T00:44:11;0.20;99.90
10692;DHT22;5396;50.950;6.988;2023-02-28T00:46:37;0.30;99.90
10692;DHT22;5396;50.950;6.988;2023-02-28T00:49:03;0.30;99.90
10692;DHT22;5396;50.950;6.988;2023-02-28T00:51:28;0.40;99.90
10692;DHT22;5396;50.950;6.988;2023-02-28T00:53:54;0.40;99.90
10692;DHT22;5396;50.950;6.988;2023-02-28T00:56:20;0.40;99.90
10692;DHT22;5396;50.950;6.988;2023-02-28T00:58:45;0.40;99.90
10692;DHT22;5396;50.950;6.988;2023-02-28T01:01:11;0.40;99.90
10692;DHT22;5396;50.950;6.988;2023-02-28T01:03:36;0.40;99.90
10692;DHT22;5396;50.950;6.988;2023-02-28T01:06:02;0.40;99.90
10692;DHT22;5396;50.950;6.988;2023-02-28T01:08:28;0.40;99.90
10692;DHT22;5396;50.950;6.988;2023-02-28T01:10:53;0.40;99.90
10692;DHT22;5396;50.950;6.988;2023-02-28T01:13:20;0.40;99.90
10692;DHT22;5396;50.950;6.988;2023-02-28T01:15:50;0.30;99.90
10692;DHT22;5396;50.950;6.988;2023-02-28T01:18:17;0.30;99.90
10692;DHT22;5396;50.950;6.988;2023-02-28T01:20:42;0.30;99.90
10692;DHT22;5396;50.950;6.988;2023-02-28T01:23:08;0.30;99.90
10692;DHT22;5396;50.950;6.988;2023-02-28T01:25:35;0.30;99.90
10692;DHT22;5396;50.950;6.988;2023-02-28T01:28:01;0.30;99.90
10692;DHT22;5396;50.950;6.988;2023-02-28T01:30:28;0.30;99.90
10692;DHT22;5396;50.950;6.988;2023-02-28T01:32:53;0.40;99.90
10692;DHT22;5396;50.950;6.988;2023-02-28T01:35:19;0.30;99.90
10692;DHT22;5396;50.950;6.988;2023-02-28T01:37:45;0.30;99.90
10692;DHT22;5396;50.950;6.988;2023-02-28T01:40:12;0.30;99.90
10692;DHT22;5396;50.950;6.988;2023-02-28T01:42:38;0.30;99.90
10692;DHT22;5396;50.950;6.988;2023-02-28T01:45:22;0.20;99.90
10692;DHT22;5396;50.950;6.988;2023-02-28T01:47:50;0.20;99.90
10692;DHT22;5396;50.950;6.988;2023-02-28T01:50:23;0.20;99.90
10692;DHT22;5396;50.950;6.988;2023-02-28T01:52:50;0.20;99.90
10692;DHT22;5396;50.950;6.988;2023-02-28T01:55:18;0.10;99.90
10692;DHT22;5396;50.950;6.988;2023-02-28T01:57:48;0.10;99.90
10692;DHT22;5396;50.950;6.988;2023-02-28T02:00:19;0.10;99.90
10692;DHT22;5396;50.950;6.988;2023-02-28T02:02:47;0.10;99.90
10692;DHT22;5396;50.950;6.988;2023-02-28T02:05:27;0.10;99.90
10692;DHT22;5396;50.950;6.988;2023-02-28T02:08:01;0.10;99.90
10692;DHT22;5396;50.950;6.988;2023-02-28T02:15:54;0.10;99.90
10692;DHT22;5396;50.950;6.988;2023-02-28T02:23:40;0.20;99.90
10692;DHT22;5396;50.950;6.988;2023-02-28T02:31:48;0.20;99.90
10692;DHT22;5396;50.950;6.988;2023-02-28T02:40:10;0.10;99.90
10692;DHT22;5396;50.950;6.988;2023-02-28T02:42:52;0.20;99.90
10692;DHT22;5396;50.950;6.988;2023-02-28T02:45:55;0.20;99.90
10692;DHT22;5396;50.950;6.988;2023-02-28T02:48:26;0.20;99.90
10692;DHT22;5396;50.950;6.988;2023-02-28T02:50:55;0.20;99.90
10692;DHT22;5396;50.950;6.988;2023-02-28T02:53:29;0.10;99.90
10692;DHT22;5396;50.950;6.988;2023-02-28T02:55:58;0.10;99.90
10692;DHT22;5396;50.950;6.988;2023-02-28T02:58:29;0.00;99.90
10692;DHT22;5396;50.950;6.988;2023-02-28T03:00:59;0.00;99.90
10692;DHT22;5396;50.950;6.988;2023-02-28T03:03:27;-0.10;99.90
10692;DHT22;5396;50.950;6.988;2023-02-28T03:05:58;-0.10;99.90
10692;DHT22;5396;50.950;6.988;2023-02-28T03:08:24;-0.10;99.90
10692;DHT22;5396;50.950;6.988;2023-02-28T03:10:56;-0.10;99.90
10692;DHT22;5396;50.950;6.988;2023-02-28T03:24:25;-0.40;99.90
10692;DHT22;5396;50.950;6.988;2023-02-28T03:27:11;-0.40;99.90
10692;DHT22;5396;50.950;6.988;2023-02-28T03:29:43;-0.30;99.90
10692;DHT22;5396;50.950;6.988;2023-02-28T03:32:40;-0.30;99.90
10692;DHT22;5396;50.950;6.988;2023-02-28T03:35:11;-0.30;99.90
10692;DHT22;5396;50.950;6.988;2023-02-28T03:37:41;-0.20;99.90
10692;DHT22;5396;50.950;6.988;2023-02-28T03:40:13;-0.20;99.90
10692;DHT22;5396;50.950;6.988;2023-02-28T03:42:42;-0.10;99.90
10692;DHT22;5396;50.950;6.988;2023-02-28T03:45:21;-0.10;99.90
10692;DHT22;5396;50.950;6.988;2023-02-28T03:48:13;-0.10;99.90
10692;DHT22;5396;50.950;6.988;2023-02-28T03:50:43;-0.20;99.90
10692;DHT22;5396;50.950;6.988;2023-02-28T03:53:17;-0.20;99.90
10692;DHT22;5396;50.950;6.988;2023-02-28T03:56:06;-0.20;99.90
10692;DHT22;5396;50.950;6.988;2023-02-28T03:58:58;-0.30;99.90
10692;DHT22;5396;50.950;6.988;2023-02-28T04:01:33;-0.30;99.90
10692;DHT22;5396;50.950;6.988;2023-02-28T04:03:59;-0.30;99.90
10692;DHT22;5396;50.950;6.988;2023-02-28T04:06:25;-0.30;99.90
10692;DHT22;5396;50.950;6.988;2023-02-28T04:08:51;-0.30;99.90
10692;DHT22;5396;50.950;6.988;2023-02-28T04:11:23;-0.30;99.90
10692;DHT22;5396;50.950;6.988;2023-02-28T04:13:53;-0.30;99.90
10692;DHT22;5396;50.950;6.988;2023-02-28T04:16:18;-0.40;99.90
10692;DHT22;5396;50.950;6.988;2023-02-28T04:18:44;-0.40;99.90
10692;DHT22;5396;50.950;6.988;2023-02-28T04:21:11;-0.40;99.90
10692;DHT22;5396;50.950;6.988;2023-02-28T04:23:36;-0.40;99.90
10692;DHT22;5396;50.950;6.988;2023-02-28T04:26:02;-0.40;99.90
10692;DHT22;5396;50.950;6.988;2023-02-28T04:28:29;-0.40;99.90
10692;DHT22;5396;50.950;6.988;2023-02-28T04:30:59;-0.40;99.90
10692;DHT22;5396;50.950;6.988;2023-02-28T04:33:25;-0.40;99.90
10692;DHT22;5396;50.950;6.988;2023-02-28T04:36:04;-0.50;99.90
10692;DHT22;5396;50.950;6.988;2023-02-28T04:38:33;-0.50;99.90
10692;DHT22;5396;50.950;6.988;2023-02-28T04:40:59;-0.50;99.90
10692;DHT22;5396;50.950;6.988;2023-02-28T04:43:27;-0.60;99.90
10692;DHT22;5396;50.950;6.988;2023-02-28T04:45:53;-0.60;99.90
10692;DHT22;5396;50.950;6.988;2023-02-28T04:48:25;-0.60;99.90
10692;DHT22;5396;50.950;6.988;2023-02-28T04:50:51;-0.60;99.90
10692;DHT22;5396;50.950;6.988;2023-02-28T04:53:17;-0.70;99.90
10692;DHT22;5396;50.950;6.988;2023-02-28T04:55:43;-0.70;99.90
10692;DHT22;5396;50.950;6.988;2023-02-28T04:58:09;-0.60;99.90
10692;DHT22;5396;50.950;6.988;2023-02-28T05:00:35;-0.60;99.90
10692;DHT22;5396;50.950;6.988;2023-02-28T05:03:01;-0.60;99.90
10692;DHT22;5396;50.950;6.988;2023-02-28T05:05:26;-0.60;99.90
10692;DHT22;5396;50.950;6.988;2023-02-28T05:07:53;-0.60;99.90
10692;DHT22;5396;50.950;6.988;2023-02-28T05:10:21;-0.60;99.90
10692;DHT22;5396;50.950;6.988;2023-02-28T05:12:47;-0.60;99.90
10692;DHT22;5396;50.950;6.988;2023-02-28T05:15:14;-0.60;99.90
10692;DHT22;5396;50.950;6.988;2023-02-28T05:17:41;-0.60;99.90
10692;DHT22;5396;50.950;6.988;2023-02-28T05:20:07;-0.70;99.90
10692;DHT22;5396;50.950;6.988;2023-02-28T05:22:36;-0.70;99.90
10692;DHT22;5396;50.950;6.988;2023-02-28T05:25:03;-0.70;99.90
10692;DHT22;5396;50.950;6.988;2023-02-28T05:27:30;-0.80;99.90
10692;DHT22;5396;50.950;6.988;2023-02-28T05:29:56;-0.80;99.90
10692;DHT22;5396;50.950;6.988;2023-02-28T05:32:21;-0.80;99.90
10692;DHT22;5396;50.950;6.988;2023-02-28T05:34:47;-0.80;99.90
10692;DHT22;5396;50.950;6.988;2023-02-28T05:37:14;-0.90;99.90
10692;DHT22;5396;50.950;6.988;2023-02-28T05:39:41;-0.80;99.90
10692;DHT22;5396;50.950;6.988;2023-02-28T05:42:07;-0.80;99.90
10692;DHT22;5396;50.950;6.988;2023-02-28T05:44:32;-0.70;99.90
10692;DHT22;5396;50.950;6.988;2023-02-28T05:46:58;-0.70;99.90
10692;DHT22;5396;50.950;6.988;2023-02-28T05:49:23;-0.70;99.90
10692;DHT22;5396;50.950;6.988;2023-02-28T05:51:49;-0.70;99.90
10692;DHT22;5396;50.950;6.988;2023-02-28T05:54:15;-0.70;99.90
10692;DHT22;5396;50.950;6.988;2023-02-28T05:56:40;-0.70;99.90
10692;DHT22;5396;50.950;6.988;2023-02-28T05:59:09;-0.60;99.90
10692;DHT22;5396;50.950;6.988;2023-02-28T06:04:01;-0.60;99.90
10692;DHT22;5396;50.950;6.988;2023-02-28T06:06:28;-0.60;99.90
10692;DHT22;5396;50.950;6.988;2023-02-28T06:08:55;-0.60;99.90
10692;DHT22;5396;50.950;6.988;2023-02-28T06:11:20;-0.60;99.90
10692;DHT22;5396;50.950;6.988;2023-02-28T06:13:47;-0.60;99.90
10692;DHT22;5396;50.950;6.988;2023-02-28T06:16:14;-0.60;99.90
10692;DHT22;5396;50.950;6.988;2023-02-28T06:18:39;-0.60;99.90
10692;DHT22;5396;50.950;6.988;2023-02-28T06:21:05;-0.60;99.90
10692;DHT22;5396;50.950;6.988;2023-02-28T06:23:31;-0.60;99.90
10692;DHT22;5396;50.950;6.988;2023-02-28T06:25:56;-0.60;99.90
10692;DHT22;5396;50.950;6.988;2023-02-28T06:28:25;-0.60;99.90
10692;DHT22;5396;50.950;6.988;2023-02-28T06:30:51;-0.60;99.90
10692;DHT22;5396;50.950;6.988;2023-02-28T06:33:17;-0.50;99.90
10692;DHT22;5396;50.950;6.988;2023-02-28T06:35:44;-0.40;99.90
10692;DHT22;5396;50.950;6.988;2023-02-28T06:38:10;-0.50;99.90
10692;DHT22;5396;50.950;6.988;2023-02-28T06:40:36;-0.40;99.90
10692;DHT22;5396;50.950;6.988;2023-02-28T06:43:02;-0.50;99.90
10692;DHT22;5396;50.950;6.988;2023-02-28T06:45:28;-0.40;99.90
10692;DHT22;5396;50.950;6.988;2023-02-28T06:47:54;-0.40;99.90
10692;DHT22;5396;50.950;6.988;2023-02-28T06:50:19;-0.40;99.90
10692;DHT22;5396;50.950;6.988;2023-02-28T06:52:46;-0.40;99.90
10692;DHT22;5396;50.950;6.988;2023-02-28T06:55:12;-0.40;99.90
10692;DHT22;5396;50.950;6.988;2023-02-28T06:57:38;-0.40;99.90
10692;DHT22;5396;50.950;6.988;2023-02-28T07:00:07;-0.30;99.90
10692;DHT22;5396;50.950;6.988;2023-02-28T07:02:35;-0.30;99.90
10692;DHT22;5396;50.950;6.988;2023-02-28T07:05:00;-0.30;99.90
10692;DHT22;5396;50.950;6.988;2023-02-28T07:07:26;-0.30;99.90
10692;DHT22;5396;50.950;6.988;2023-02-28T07:09:52;-0.20;99.90
10692;DHT22;5396;50.950;6.988;2023-02-28T07:12:17;-0.20;99.90
10692;DHT22;5396;50.950;6.988;2023-02-28T07:14:43;-0.20;99.90
10692;DHT22;5396;50.950;6.988;2023-02-28T07:17:10;-0.20;99.90
10692;DHT22;5396;50.950;6.988;2023-02-28T07:19:38;-0.20;99.90
10692;DHT22;5396;50.950;6.988;2023-02-28T07:22:04;-0.10;99.90
10692;DHT22;5396;50.950;6.988;2023-02-28T07:24:30;-0.10;99.90
10692;DHT22;5396;50.950;6.988;2023-02-28T07:26:55;0.00;99.90
10692;DHT22;5396;50.950;6.988;2023-02-28T07:29:21;0.00;99.90
10692;DHT22;5396;50.950;6.988;2023-02-28T07:31:47;0.10;99.90
10692;DHT22;5396;50.950;6.988;2023-02-28T07:34:13;0.10;99.90
10692;DHT22;5396;50.950;6.988;2023-02-28T07:36:39;0.20;99.90
10692;DHT22;5396;50.950;6.988;2023-02-28T07:39:05;0.30;99.90
10692;DHT22;5396;50.950;6.988;2023-02-28T07:41:30;0.30;99.90
10692;DHT22;5396;50.950;6.988;2023-02-28T07:43:59;0.40;99.90
10692;DHT22;5396;50.950;6.988;2023-02-28T07:46:25;0.40;99.90
10692;DHT22;5396;50.950;6.988;2023-02-28T07:48:51;0.50;99.90
10692;DHT22;5396;50.950;6.988;2023-02-28T07:51:18;0.50;99.90
10692;DHT22;5396;50.950;6.988;2023-02-28T07:53:44;0.60;99.90
10692;DHT22;5396;50.950;6.988;2023-02-28T07:56:10;0.60;99.90
10692;DHT22;5396;50.950;6.988;2023-02-28T07:58:36;0.60;99.90
10692;DHT22;5396;50.950;6.988;2023-02-28T08:01:10;0.70;99.90
10692;DHT22;5396;50.950;6.988;2023-02-28T08:03:37;0.70;99.90
10692;DHT22;5396;50.950;6.988;2023-02-28T08:06:04;0.80;99.90
10692;DHT22;5396;50.950;6.988;2023-02-28T08:08:29;0.90;99.90
10692;DHT22;5396;50.950;6.988;2023-02-28T08:10:59;1.00;99.90
10692;DHT22;5396;50.950;6.988;2023-02-28T08:13:26;1.00;99.90
10692;DHT22;5396;50.950;6.988;2023-02-28T08:15:53;1.10;99.90
10692;DHT22;5396;50.950;6.988;2023-02-28T08:18:19;1.20;99.90
10692;DHT22;5396;50.950;6.988;2023-02-28T08:20:45;1.30;99.90
10692;DHT22;5396;50.950;6.988;2023-02-28T08:23:10;1.40;99.90
10692;DHT22;5396;50.950;6.988;2023-02-28T08:25:36;1.50;99.90
10692;DHT22;5396;50.950;6.988;2023-02-28T08:28:01;1.60;99.90
10692;DHT22;5396;50.950;6.988;2023-02-28T08:30:27;1.60;99.90
10692;DHT22;5396;50.950;6.988;2023-02-28T08:32:53;1.70;99.90
10692;DHT22;5396;50.950;6.988;2023-02-28T08:35:19;1.70;99.90
10692;DHT22;5396;50.950;6.988;2023-02-28T08:37:47;1.80;99.90
10692;DHT22;5396;50.950;6.988;2023-02-28T08:40:13;1.90;99.90
10692;DHT22;5396;50.950;6.988;2023-02-28T08:42:46;1.90;99.90
10692;DHT22;5396;50.950;6.988;2023-02-28T08:45:12;2.00;99.90
10692;DHT22;5396;50.950;6.988;2023-02-28T08:47:38;2.00;99.90
10692;DHT22;5396;50.950;6.988;2023-02-28T08:50:05;2.10;99.90
10692;DHT22;5396;50.950;6.988;2023-02-28T08:52:30;2.10;99.90
10692;DHT22;5396;50.950;6.988;2023-02-28T08:54:56;2.20;99.90
10692;DHT22;5396;50.950;6.988;2023-02-28T08:57:21;2.20;99.90
10692;DHT22;5396;50.950;6.988;2023-02-28T08:59:47;2.20;99.90
10692;DHT22;5396;50.950;6.988;2023-02-28T09:02:14;2.20;99.90
10692;DHT22;5396;50.950;6.988;2023-02-28T09:04:40;2.30;99.90
10692;DHT22;5396;50.950;6.988;2023-02-28T09:07:07;2.40;99.90
10692;DHT22;5396;50.950;6.988;2023-02-28T09:09:33;2.40;99.90
10692;DHT22;5396;50.950;6.988;2023-02-28T09:11:58;2.40;99.90
10692;DHT22;5396;50.950;6.988;2023-02-28T09:14:24;2.50;99.90
10692;DHT22;5396;50.950;6.988;2023-02-28T09:16:49;2.50;99.90
10692;DHT22;5396;50.950;6.988;2023-02-28T09:19:15;2.40;99.90
10692;DHT22;5396;50.950;6.988;2023-02-28T09:21:41;2.40;99.90
10692;DHT22;5396;50.950;6.988;2023-02-28T09:24:07;2.50;99.90
10692;DHT22;5396;50.950;6.988;2023-02-28T09:26:33;2.60;99.90
10692;DHT22;5396;50.950;6.988;2023-02-28T09:28:59;2.70;99.90
10692;DHT22;5396;50.950;6.988;2023-02-28T09:31:27;2.80;99.90
10692;DHT22;5396;50.950;6.988;2023-02-28T09:33:55;2.70;99.90
10692;DHT22;5396;50.950;6.988;2023-02-28T09:36:22;2.70;99.90
10692;DHT22;5396;50.950;6.988;2023-02-28T09:38:48;2.80;99.90
10692;DHT22;5396;50.950;6.988;2023-02-28T09:41:18;2.90;99.90
10692;DHT22;5396;50.950;6.988;2023-02-28T09:43:47;3.00;99.90
10692;DHT22;5396;50.950;6.988;2023-02-28T09:48:46;3.10;99.90
10692;DHT22;5396;50.950;6.988;2023-02-28T09:53:46;3.00;99.90
10692;DHT22;5396;50.950;6.988;2023-02-28T09:56:20;3.10;99.90
10692;DHT22;5396;50.950;6.988;2023-02-28T10:01:53;3.20;99.90
10692;DHT22;5396;50.950;6.988;2023-02-28T10:04:40;3.20;99.90
10692;DHT22;5396;50.950;6.988;2023-02-28T10:09:53;3.40;99.90
10692;DHT22;5396;50.950;6.988;2023-02-28T10:12:20;3.40;99.90
10692;DHT22;5396;50.950;6.988;2023-02-28T10:14:49;3.30;99.90
10692;DHT22;5396;50.950;6.988;2023-02-28T10:17:36;3.40;99.90
10692;DHT22;5396;50.950;6.988;2023-02-28T10:20:17;3.50;99.90
10692;DHT22;5396;50.950;6.988;2023-02-28T10:23:17;3.50;99.90
10692;DHT22;5396;50.950;6.988;2023-02-28T10:26:28;3.40;99.90
10692;DHT22;5396;50.950;6.988;2023-02-28T10:28:46;3.40;99.90
10692;DHT22;5396;50.950;6.988;2023-02-28T10:31:17;3.50;99.90
10692;DHT22;5396;50.950;6.988;2023-02-28T10:33:43;3.70;99.90
10692;DHT22;5396;50.950;6.988;2023-02-28T10:36:14;3.80;99.90
10692;DHT22;5396;50.950;6.988;2023-02-28T10:38:40;3.70;99.90
10692;DHT22;5396;50.950;6.988;2023-02-28T10:43:41;3.60;99.90
10692;DHT22;5396;50.950;6.988;2023-02-28T10:48:41;3.40;99.90
10692;DHT22;5396;50.950;6.988;2023-02-28T10:51:12;3.50;99.90
10692;DHT22;5396;50.950;6.988;2023-02-28T10:53:47;3.50;99.90
10692;DHT22;5396;50.950;6.988;2023-02-28T10:56:17;3.60;99.90
10692;DHT22;5396;50.950;6.988;2023-02-28T10:58:56;3.70;99.90
10692;DHT22;5396;50.950;6.988;2023-02-28T11:01:39;3.70;99.90
10692;DHT22;5396;50.950;6.988;2023-02-28T11:04:33;3.90;99.90
10692;DHT22;5396;50.950;6.988;2023-02-28T11:07:17;3.90;99.90
10692;DHT22;5396;50.950;6.988;2023-02-28T11:09:46;3.90;99.90
10692;DHT22;5396;50.950;6.988;2023-02-28T11:12:26;3.90;99.90
10692;DHT22;5396;50.950;6.988;2023-02-28T11:14:57;4.00;99.90
10692;DHT22;5396;50.950;6.988;2023-02-28T11:17:28;4.20;99.90
10692;DHT22;5396;50.950;6.988;2023-02-28T11:20:04;4.20;99.90
10692;DHT22;5396;50.950;6.988;2023-02-28T11:22:35;4.30;99.90
10692;DHT22;5396;50.950;6.988;2023-02-28T11:25:09;4.40;99.90
10692;DHT22;5396;50.950;6.988;2023-02-28T11:27:53;4.40;99.90
10692;DHT22;5396;50.950;6.988;2023-02-28T11:30:32;4.30;99.90
10692;DHT22;5396;50.950;6.988;2023-02-28T11:32:59;4.40;99.90
10692;DHT22;5396;50.950;6.988;2023-02-28T11:35:29;4.50;99.90
10692;DHT22;5396;50.950;6.988;2023-02-28T11:37:57;4.40;99.90
10692;DHT22;5396;50.950;6.988;2023-02-28T11:40:43;4.40;99.90
10692;DHT22;5396;50.950;6.988;2023-02-28T11:49:20;4.80;99.90
10692;DHT22;5396;50.950;6.988;2023-02-28T11:52:10;4.90;99.90
10692;DHT22;5396;50.950;6.988;2023-02-28T11:55:06;4.90;99.90
10692;DHT22;5396;50.950;6.988;2023-02-28T11:57:49;5.10;99.90
10692;DHT22;5396;50.950;6.988;2023-02-28T12:00:44;5.10;99.90
10692;DHT22;5396;50.950;6.988;2023-02-28T12:05:45;5.10;99.90
10692;DHT22;5396;50.950;6.988;2023-02-28T12:08:41;5.10;99.90
10692;DHT22;5396;50.950;6.988;2023-02-28T12:14:18;5.20;99.90
10692;DHT22;5396;50.950;6.988;2023-02-28T12:22:27;5.00;99.90
10692;DHT22;5396;50.950;6.988;2023-02-28T12:25:04;5.00;99.90
10692;DHT22;5396;50.950;6.988;2023-02-28T12:27:41;4.90;99.90
10692;DHT22;5396;50.950;6.988;2023-02-28T12:32:52;4.90;99.90
10692;DHT22;5396;50.950;6.988;2023-02-28T12:35:24;5.00;99.90
10692;DHT22;5396;50.950;6.988;2023-02-28T12:37:59;5.00;99.90
10692;DHT22;5396;50.950;6.988;2023-02-28T12:43:07;5.10;99.90
10692;DHT22;5396;50.950;6.988;2023-02-28T12:45:40;5.30;99.90
10692;DHT22;5396;50.950;6.988;2023-02-28T12:48:08;5.40;99.90
10692;DHT22;5396;50.950;6.988;2023-02-28T12:50:37;5.30;99.90
10692;DHT22;5396;50.950;6.988;2023-02-28T12:53:12;5.30;99.90
10692;DHT22;5396;50.950;6.988;2023-02-28T12:55:56;5.20;99.90
10692;DHT22;5396;50.950;6.988;2023-02-28T12:58:45;5.40;99.90
10692;DHT22;5396;50.950;6.988;2023-02-28T13:09:18;5.50;99.90
10692;DHT22;5396;50.950;6.988;2023-02-28T13:11:46;5.60;99.90
10692;DHT22;5396;50.950;6.988;2023-02-28T13:17:10;5.70;99.90
10692;DHT22;5396;50.950;6.988;2023-02-28T13:20:18;5.70;99.90
10692;DHT22;5396;50.950;6.988;2023-02-28T13:28:00;5.90;99.90
10692;DHT22;5396;50.950;6.988;2023-02-28T13:34:20;5.90;99.90
10692;DHT22;5396;50.950;6.988;2023-02-28T13:36:31;6.00;99.90
10692;DHT22;5396;50.950;6.988;2023-02-28T13:39:02;7.30;99.90
10692;DHT22;5396;50.950;6.988;2023-02-28T13:54:54;11.20;99.90
10692;DHT22;5396;50.950;6.988;2023-02-28T13:57:50;11.80;99.90
10692;DHT22;5396;50.950;6.988;2023-02-28T14:03:12;13.80;99.90
10692;DHT22;5396;50.950;6.988;2023-02-28T14:05:41;14.80;99.90
10692;DHT22;5396;50.950;6.988;2023-02-28T14:08:20;15.10;99.90
10692;DHT22;5396;50.950;6.988;2023-02-28T14:10:49;14.80;99.90
10692;DHT22;5396;50.950;6.988;2023-02-28T14:15:57;14.10;99.90
10692;DHT22;5396;50.950;6.988;2023-02-28T14:18:28;14.30;99.90
10692;DHT22;5396;50.950;6.988;2023-02-28T14:21:27;13.80;99.90
10692;DHT22;5396;50.950;6.988;2023-02-28T14:26:35;14.80;99.90
10692;DHT22;5396;50.950;6.988;2023-02-28T14:32:00;13.30;99.90
10692;DHT22;5396;50.950;6.988;2023-02-28T14:34:45;13.50;99.90
10692;DHT22;5396;50.950;6.988;2023-02-28T14:37:19;13.20;99.90
10692;DHT22;5396;50.950;6.988;2023-02-28T14:39:46;11.90;99.90
10692;DHT22;5396;50.950;6.988;2023-02-28T14:42:33;11.50;99.90
10692;DHT22;5396;50.950;6.988;2023-02-28T14:45:00;10.60;99.90
10692;DHT22;5396;50.950;6.988;2023-02-28T14:47:31;9.90;99.90
10692;DHT22;5396;50.950;6.988;2023-02-28T14:49:58;10.30;99.90
10692;DHT22;5396;50.950;6.988;2023-02-28T14:52:27;10.40;99.90
10692;DHT22;5396;50.950;6.988;2023-02-28T14:54:59;10.40;99.90
10692;DHT22;5396;50.950;6.988;2023-02-28T14:57:28;10.90;99.90
10692;DHT22;5396;50.950;6.988;2023-02-28T15:02:39;11.50;99.90
10692;DHT22;5396;50.950;6.988;2023-02-28T15:07:43;10.90;99.90
10692;DHT22;5396;50.950;6.988;2023-02-28T15:10:23;10.30;99.90
10692;DHT22;5396;50.950;6.988;2023-02-28T15:12:57;10.00;99.90
10692;DHT22;5396;50.950;6.988;2023-02-28T15:15:40;9.90;99.90
10692;DHT22;5396;50.950;6.988;2023-02-28T15:18:10;10.50;99.90
10692;DHT22;5396;50.950;6.988;2023-02-28T15:20:39;11.20;99.90
10692;DHT22;5396;50.950;6.988;2023-02-28T15:23:06;11.60;99.90
10692;DHT22;5396;50.950;6.988;2023-02-28T15:25:32;11.10;99.90
10692;DHT22;5396;50.950;6.988;2023-02-28T15:27:58;10.50;99.90
10692;DHT22;5396;50.950;6.988;2023-02-28T15:30:25;10.70;99.90
10692;DHT22;5396;50.950;6.988;2023-02-28T15:35:37;10.10;99.90
10692;DHT22;5396;50.950;6.988;2023-02-28T15:40:46;8.80;99.90
10692;DHT22;5396;50.950;6.988;2023-02-28T15:43:30;8.60;99.90
10692;DHT22;5396;50.950;6.988;2023-02-28T15:45:59;8.40;99.90
10692;DHT22;5396;50.950;6.988;2023-02-28T15:48:35;8.50;99.90
10692;DHT22;5396;50.950;6.988;2023-02-28T15:53:48;8.70;99.90
10692;DHT22;5396;50.950;6.988;2023-02-28T15:56:27;8.50;99.90
10692;DHT22;5396;50.950;6.988;2023-02-28T15:58:55;8.50;99.90
10692;DHT22;5396;50.950;6.988;2023-02-28T16:01:26;8.40;99.90
10692;DHT22;5396;50.950;6.988;2023-02-28T16:03:56;8.30;99.90
10692;DHT22;5396;50.950;6.988;2023-02-28T16:08:48;7.70;99.90
10692;DHT22;5396;50.950;6.988;2023-02-28T16:11:16;7.50;99.90
10692;DHT22;5396;50.950;6.988;2023-02-28T16:13:42;7.40;99.90
10692;DHT22;5396;50.950;6.988;2023-02-28T16:16:08;7.20;99.90
10692;DHT22;5396;50.950;6.988;2023-02-28T16:18:39;7.40;99.90
10692;DHT22;5396;50.950;6.988;2023-02-28T16:21:05;8.20;99.90
10692;DHT22;5396;50.950;6.988;2023-02-28T16:23:31;9.10;99.90
10692;DHT22;5396;50.950;6.988;2023-02-28T16:25:56;9.80;99.90
10692;DHT22;5396;50.950;6.988;2023-02-28T16:28:25;10.20;99.90
10692;DHT22;5396;50.950;6.988;2023-02-28T16:30:55;10.00;99.90
10692;DHT22;5396;50.950;6.988;2023-02-28T16:33:22;10.00;99.90
10692;DHT22;5396;50.950;6.988;2023-02-28T16:35:48;9.20;99.90
10692;DHT22;5396;50.950;6.988;2023-02-28T16:38:14;8.50;99.90
10692;DHT22;5396;50.950;6.988;2023-02-28T16:40:40;7.70;99.90
10692;DHT22;5396;50.950;6.988;2023-02-28T16:43:10;7.10;99.90
10692;DHT22;5396;50.950;6.988;2023-02-28T16:45:40;6.60;99.90
10692;DHT22;5396;50.950;6.988;2023-02-28T16:48:12;6.30;99.90
10692;DHT22;5396;50.950;6.988;2023-02-28T16:50:38;6.00;99.90
10692;DHT22;5396;50.950;6.988;2023-02-28T16:53:04;5.90;99.90
10692;DHT22;5396;50.950;6.988;2023-02-28T16:55:29;5.70;99.90
10692;DHT22;5396;50.950;6.988;2023-02-28T16:57:57;5.60;99.90
10692;DHT22;5396;50.950;6.988;2023-02-28T17:00:24;5.50;99.90
10692;DHT22;5396;50.950;6.988;2023-02-28T17:02:51;5.40;99.90
10692;DHT22;5396;50.950;6.988;2023-02-28T17:05:17;5.30;99.90
10692;DHT22;5396;50.950;6.988;2023-02-28T17:07:44;5.20;99.90
10692;DHT22;5396;50.950;6.988;2023-02-28T17:12:39;5.10;99.90
10692;DHT22;5396;50.950;6.988;2023-02-28T17:15:06;4.90;99.90
10692;DHT22;5396;50.950;6.988;2023-02-28T17:17:32;4.80;99.90
10692;DHT22;5396;50.950;6.988;2023-02-28T17:19:57;4.80;99.90
10692;DHT22;5396;50.950;6.988;2023-02-28T17:22:23;4.80;99.90
10692;DHT22;5396;50.950;6.988;2023-02-28T17:24:51;4.80;99.90
10692;DHT22;5396;50.950;6.988;2023-02-28T17:27:17;4.80;99.90
10692;DHT22;5396;50.950;6.988;2023-02-28T17:29:42;4.80;99.90
10692;DHT22;5396;50.950;6.988;2023-02-28T17:32:08;4.70;99.90
10692;DHT22;5396;50.950;6.988;2023-02-28T17:34:33;4.70;99.90
10692;DHT22;5396;50.950;6.988;2023-02-28T17:36:59;4.70;99.90
10692;DHT22;5396;50.950;6.988;2023-02-28T17:39:24;4.60;99.90
10692;DHT22;5396;50.950;6.988;2023-02-28T17:41:54;4.60;99.90
10692;DHT22;5396;50.950;6.988;2023-02-28T17:44:21;4.50;99.90
10692;DHT22;5396;50.950;6.988;2023-02-28T17:46:48;4.50;99.90
10692;DHT22;5396;50.950;6.988;2023-02-28T17:49:17;4.50;99.90
10692;DHT22;5396;50.950;6.988;2023-02-28T17:51:43;4.50;99.90
10692;DHT22;5396;50.950;6.988;2023-02-28T17:54:09;4.30;99.90
10692;DHT22;5396;50.950;6.988;2023-02-28T17:56:35;4.30;99.90
10692;DHT22;5396;50.950;6.988;2023-02-28T17:59:01;4.20;99.90
10692;DHT22;5396;50.950;6.988;2023-02-28T18:01:26;4.20;99.90
10692;DHT22;5396;50.950;6.988;2023-02-28T18:03:53;4.20;99.90
10692;DHT22;5396;50.950;6.988;2023-02-28T18:06:35;4.20;99.90
10692;DHT22;5396;50.950;6.988;2023-02-28T18:09:02;4.20;99.90
10692;DHT22;5396;50.950;6.988;2023-02-28T18:11:27;4.20;99.90
10692;DHT22;5396;50.950;6.988;2023-02-28T18:14:07;4.10;99.90
10692;DHT22;5396;50.950;6.988;2023-02-28T18:16:33;4.00;99.90
10692;DHT22;5396;50.950;6.988;2023-02-28T18:18:59;4.10;99.90
10692;DHT22;5396;50.950;6.988;2023-02-28T18:21:27;4.00;99.90
10692;DHT22;5396;50.950;6.988;2023-02-28T18:23:53;4.00;99.90
10692;DHT22;5396;50.950;6.988;2023-02-28T18:26:19;3.90;99.90
10692;DHT22;5396;50.950;6.988;2023-02-28T18:28:44;3.80;99.90